ARG1701 SAEZ-SAZB
Flight info
| Callsign | ARG1701 |
|---|---|
| Flight time | 1h 0m |
| Altitude | 36000 |
| Route | GBE6 GBE UT694 XODIK UW18 MOXAN MOXAN1U |
| Aircraft | B738/M-SDE2E3FGHIRWXY/LB1 |
Departure
| Time | 2026-05-04 20:12 |
|---|---|
| Airport | Ezeiza International Airport - Ministro Pistarini (SAEZ) |
Arrival
| Time | 2026-05-04 21:12 |
|---|---|
| Airport | Comandante Espora Airport (SAZB) |
| Time | Latitude | Longitude | Altitude | Speed | Heading |
|---|---|---|---|---|---|
| 2026-05-04 19:59 | -34.81613 | -58.53610 | 72 ft | 0 kts | 124° |
| 2026-05-04 20:05 | -34.81603 | -58.53627 | 65 ft | 2 kts | 123° |
| 2026-05-04 20:05 | -34.81594 | -58.53643 | 66 ft | 2 kts | 123° |
| 2026-05-04 20:05 | -34.81585 | -58.53660 | 65 ft | 2 kts | 123° |
| 2026-05-04 20:05 | -34.81576 | -58.53677 | 62 ft | 2 kts | 150° |
| 2026-05-04 20:06 | -34.81560 | -58.53680 | 62 ft | 2 kts | 191° |
| 2026-05-04 20:06 | -34.81544 | -58.53675 | 65 ft | 2 kts | 205° |
| 2026-05-04 20:06 | -34.81534 | -58.53668 | 65 ft | 1 kts | 213° |
| 2026-05-04 20:06 | -34.81533 | -58.53668 | 65 ft | 0 kts | 214° |
| 2026-05-04 20:08 | -34.81537 | -58.53671 | 68 ft | 3 kts | 215° |
| 2026-05-04 20:08 | -34.81568 | -58.53700 | 70 ft | 9 kts | 220° |
| 2026-05-04 20:08 | -34.81621 | -58.53758 | 72 ft | 11 kts | 213° |
| 2026-05-04 20:08 | -34.81689 | -58.53754 | 68 ft | 10 kts | 150° |
| 2026-05-04 20:09 | -34.81775 | -58.53703 | 70 ft | 19 kts | 155° |
| 2026-05-04 20:09 | -34.81926 | -58.53617 | 68 ft | 27 kts | 155° |
| 2026-05-04 20:09 | -34.82091 | -58.53524 | 70 ft | 25 kts | 155° |
| 2026-05-04 20:09 | -34.82255 | -58.53431 | 66 ft | 27 kts | 155° |
| 2026-05-04 20:10 | -34.82437 | -58.53328 | 69 ft | 38 kts | 155° |
| 2026-05-04 20:10 | -34.82856 | -58.53090 | 69 ft | 73 kts | 155° |
| 2026-05-04 20:10 | -34.83273 | -58.52854 | 72 ft | 60 kts | 155° |
| 2026-05-04 20:10 | -34.83535 | -58.52628 | 65 ft | 37 kts | 90° |
| 2026-05-04 20:11 | -34.83382 | -58.52501 | 65 ft | 29 kts | 344° |
| 2026-05-04 20:11 | -34.83191 | -58.52572 | 67 ft | 28 kts | 344° |
| 2026-05-04 20:11 | -34.82887 | -58.52678 | 71 ft | 81 kts | 344° |
| 2026-05-04 20:11 | -34.82097 | -58.52952 | 72 ft | 153 kts | 345° |
| 2026-05-04 20:12 | -34.80920 | -58.53353 | 424 ft | 189 kts | 345° |
| 2026-05-04 20:12 | -34.79633 | -58.53854 | 1323 ft | 196 kts | 334° |
| 2026-05-04 20:12 | -34.78518 | -58.54785 | 2256 ft | 194 kts | 315° |
| 2026-05-04 20:12 | -34.77733 | -58.56105 | 3014 ft | 194 kts | 295° |
| 2026-05-04 20:13 | -34.77350 | -58.57697 | 3553 ft | 200 kts | 277° |
| 2026-05-04 20:13 | -34.77374 | -58.59407 | 4130 ft | 204 kts | 265° |
| 2026-05-04 20:13 | -34.77566 | -58.61108 | 4797 ft | 205 kts | 265° |
| 2026-05-04 20:13 | -34.77772 | -58.62930 | 4897 ft | 236 kts | 265° |
| 2026-05-04 20:14 | -34.77986 | -58.65073 | 4982 ft | 266 kts | 266° |
| 2026-05-04 20:14 | -34.78178 | -58.67272 | 6002 ft | 258 kts | 266° |
| 2026-05-04 20:14 | -34.78605 | -58.69392 | 6788 ft | 265 kts | 246° |
| 2026-05-04 20:14 | -34.79795 | -58.71142 | 7454 ft | 277 kts | 220° |
| 2026-05-04 20:15 | -34.81574 | -58.72099 | 8152 ft | 287 kts | 192° |
| 2026-05-04 20:15 | -34.83587 | -58.72028 | 8937 ft | 293 kts | 173° |
| 2026-05-04 20:15 | -34.85597 | -58.71525 | 9702 ft | 296 kts | 171° |
| 2026-05-04 20:15 | -34.87620 | -58.70950 | 10276 ft | 304 kts | 170° |
| 2026-05-04 20:16 | -34.89755 | -58.70332 | 10451 ft | 326 kts | 170° |
| 2026-05-04 20:16 | -34.92036 | -58.69677 | 10620 ft | 347 kts | 170° |
| 2026-05-04 20:16 | -34.94457 | -58.68988 | 10770 ft | 367 kts | 170° |
| 2026-05-04 20:16 | -34.97004 | -58.68271 | 10909 ft | 385 kts | 170° |
| 2026-05-04 20:17 | -34.99659 | -58.67527 | 11152 ft | 397 kts | 171° |
| 2026-05-04 20:17 | -35.02366 | -58.66770 | 11633 ft | 401 kts | 171° |
| 2026-05-04 20:17 | -35.05086 | -58.66011 | 12227 ft | 402 kts | 171° |
| 2026-05-04 20:17 | -35.07815 | -58.65250 | 12795 ft | 403 kts | 171° |
| 2026-05-04 20:18 | -35.10527 | -58.64497 | 13317 ft | 406 kts | 172° |
| 2026-05-04 20:18 | -35.13290 | -58.63731 | 13829 ft | 409 kts | 172° |
| 2026-05-04 20:18 | -35.16076 | -58.62959 | 14272 ft | 412 kts | 172° |
| 2026-05-04 20:18 | -35.18880 | -58.62182 | 14721 ft | 414 kts | 172° |
| 2026-05-04 20:19 | -35.21698 | -58.61400 | 15165 ft | 417 kts | 172° |
| 2026-05-04 20:19 | -35.24537 | -58.60612 | 15596 ft | 420 kts | 173° |
| 2026-05-04 20:19 | -35.27395 | -58.59818 | 16026 ft | 423 kts | 173° |
| 2026-05-04 20:19 | -35.30271 | -58.59018 | 16464 ft | 425 kts | 173° |
| 2026-05-04 20:20 | -35.33161 | -58.58214 | 16885 ft | 427 kts | 173° |
| 2026-05-04 20:20 | -35.36069 | -58.57404 | 17289 ft | 430 kts | 173° |
| 2026-05-04 20:20 | -35.38998 | -58.56587 | 17691 ft | 433 kts | 173° |
| 2026-05-04 20:20 | -35.41935 | -58.55768 | 18090 ft | 435 kts | 173° |
| 2026-05-04 20:21 | -35.44895 | -58.54941 | 18442 ft | 436 kts | 173° |
| 2026-05-04 20:21 | -35.47861 | -58.54112 | 18792 ft | 438 kts | 173° |
| 2026-05-04 20:21 | -35.53831 | -58.52441 | 19468 ft | 442 kts | 174° |
| 2026-05-04 20:22 | -35.56828 | -58.51602 | 19790 ft | 444 kts | 174° |
| 2026-05-04 20:22 | -35.59846 | -58.50756 | 20117 ft | 445 kts | 174° |
| 2026-05-04 20:22 | -35.62871 | -58.49907 | 20442 ft | 447 kts | 174° |
| 2026-05-04 20:22 | -35.65912 | -58.49052 | 20760 ft | 449 kts | 174° |
| 2026-05-04 20:23 | -35.68959 | -58.48197 | 21055 ft | 450 kts | 174° |
| 2026-05-04 20:23 | -35.72029 | -58.47482 | 21339 ft | 446 kts | 182° |
| 2026-05-04 20:23 | -35.75077 | -58.47675 | 21628 ft | 434 kts | 197° |
| 2026-05-04 20:23 | -35.77943 | -58.48704 | 21953 ft | 426 kts | 208° |
| 2026-05-04 20:24 | -35.80506 | -58.50457 | 22235 ft | 421 kts | 217° |
| 2026-05-04 20:24 | -35.82975 | -58.52412 | 22502 ft | 423 kts | 217° |
| 2026-05-04 20:24 | -35.85458 | -58.54367 | 22761 ft | 425 kts | 217° |
| 2026-05-04 20:24 | -35.87926 | -58.56299 | 23030 ft | 426 kts | 217° |
| 2026-05-04 20:25 | -35.90439 | -58.58253 | 23279 ft | 428 kts | 217° |
| 2026-05-04 20:25 | -35.92964 | -58.60210 | 23517 ft | 430 kts | 217° |
| 2026-05-04 20:25 | -35.95498 | -58.62168 | 23728 ft | 431 kts | 217° |
| 2026-05-04 20:25 | -35.98046 | -58.64134 | 23961 ft | 432 kts | 217° |
| 2026-05-04 20:26 | -36.00594 | -58.66102 | 24183 ft | 433 kts | 217° |
| 2026-05-04 20:26 | -36.03147 | -58.68074 | 24395 ft | 434 kts | 217° |
| 2026-05-04 20:26 | -36.05708 | -58.70054 | 24609 ft | 435 kts | 217° |
| 2026-05-04 20:26 | -36.08274 | -58.72039 | 24829 ft | 435 kts | 217° |
| 2026-05-04 20:27 | -36.10842 | -58.74028 | 25046 ft | 436 kts | 217° |
| 2026-05-04 20:27 | -36.13419 | -58.76026 | 25238 ft | 438 kts | 217° |
| 2026-05-04 20:27 | -36.16001 | -58.78029 | 25430 ft | 439 kts | 217° |
| 2026-05-04 20:27 | -36.18585 | -58.80036 | 25651 ft | 439 kts | 217° |
| 2026-05-04 20:28 | -36.21168 | -58.82042 | 25958 ft | 437 kts | 217° |
| 2026-05-04 20:28 | -36.23739 | -58.84040 | 26305 ft | 435 kts | 217° |
| 2026-05-04 20:28 | -36.26292 | -58.86026 | 26660 ft | 433 kts | 217° |
| 2026-05-04 20:28 | -36.28840 | -58.88009 | 26981 ft | 431 kts | 217° |
| 2026-05-04 20:29 | -36.31378 | -58.89988 | 27277 ft | 431 kts | 217° |
| 2026-05-04 20:29 | -36.33911 | -58.91965 | 27607 ft | 430 kts | 217° |
| 2026-05-04 20:29 | -36.36435 | -58.93935 | 27975 ft | 427 kts | 217° |
| 2026-05-04 20:29 | -36.38945 | -58.95896 | 28343 ft | 426 kts | 218° |
| 2026-05-04 20:30 | -36.41444 | -58.97850 | 28695 ft | 424 kts | 218° |
| 2026-05-04 20:30 | -36.43938 | -58.99801 | 29042 ft | 423 kts | 218° |
| 2026-05-04 20:30 | -36.46419 | -59.01745 | 29408 ft | 421 kts | 218° |
| 2026-05-04 20:30 | -36.48892 | -59.03682 | 29793 ft | 419 kts | 218° |
| 2026-05-04 20:31 | -36.51354 | -59.05614 | 30133 ft | 417 kts | 218° |
| 2026-05-04 20:31 | -36.53803 | -59.07536 | 30455 ft | 415 kts | 218° |
| 2026-05-04 20:31 | -36.56239 | -59.09449 | 30805 ft | 413 kts | 218° |
| 2026-05-04 20:31 | -36.58659 | -59.11351 | 31146 ft | 410 kts | 218° |
| 2026-05-04 20:32 | -36.61068 | -59.13246 | 31445 ft | 409 kts | 219° |
| 2026-05-04 20:32 | -36.63463 | -59.15132 | 31735 ft | 407 kts | 219° |
| 2026-05-04 20:32 | -36.65852 | -59.17015 | 32059 ft | 405 kts | 219° |
| 2026-05-04 20:32 | -36.68221 | -59.18882 | 32399 ft | 402 kts | 219° |
| 2026-05-04 20:33 | -36.70549 | -59.20719 | 32689 ft | 400 kts | 219° |
| 2026-05-04 20:33 | -36.72897 | -59.22574 | 32958 ft | 399 kts | 219° |
| 2026-05-04 20:33 | -36.75236 | -59.24423 | 33250 ft | 397 kts | 219° |
| 2026-05-04 20:33 | -36.77597 | -59.26289 | 33568 ft | 395 kts | 219° |
| 2026-05-04 20:34 | -36.79879 | -59.28095 | 33847 ft | 393 kts | 219° |
| 2026-05-04 20:34 | -36.82187 | -59.29924 | 34065 ft | 392 kts | 219° |
| 2026-05-04 20:34 | -36.84488 | -59.31748 | 34266 ft | 391 kts | 219° |
| 2026-05-04 20:34 | -36.86782 | -59.33568 | 34479 ft | 390 kts | 220° |
| 2026-05-04 20:35 | -36.89068 | -59.35383 | 34689 ft | 389 kts | 220° |
| 2026-05-04 20:35 | -36.91352 | -59.37198 | 34880 ft | 388 kts | 220° |
| 2026-05-04 20:35 | -36.93629 | -59.39008 | 35040 ft | 388 kts | 220° |
| 2026-05-04 20:35 | -36.95911 | -59.40824 | 35183 ft | 388 kts | 220° |
| 2026-05-04 20:36 | -36.98190 | -59.42638 | 35348 ft | 388 kts | 220° |
| 2026-05-04 20:36 | -37.00462 | -59.44448 | 35535 ft | 387 kts | 220° |
| 2026-05-04 20:36 | -37.02728 | -59.46254 | 35721 ft | 386 kts | 220° |
| 2026-05-04 20:36 | -37.04988 | -59.48057 | 35845 ft | 385 kts | 220° |
| 2026-05-04 20:37 | -37.09521 | -59.51680 | 35864 ft | 387 kts | 220° |
| 2026-05-04 20:37 | -37.14050 | -59.55300 | 35862 ft | 385 kts | 220° |
| 2026-05-04 20:38 | -37.18557 | -59.58917 | 35864 ft | 384 kts | 220° |
| 2026-05-04 20:38 | -37.22995 | -59.62637 | 35865 ft | 383 kts | 221° |
| 2026-05-04 20:39 | -37.27402 | -59.66389 | 35863 ft | 383 kts | 221° |
| 2026-05-04 20:39 | -37.31779 | -59.70111 | 35861 ft | 382 kts | 221° |
| 2026-05-04 20:40 | -37.36184 | -59.73853 | 35859 ft | 382 kts | 221° |
| 2026-05-04 20:40 | -37.40592 | -59.77596 | 35864 ft | 382 kts | 221° |
| 2026-05-04 20:41 | -37.44997 | -59.81343 | 35858 ft | 382 kts | 221° |
| 2026-05-04 20:41 | -37.49399 | -59.85092 | 35856 ft | 382 kts | 221° |
| 2026-05-04 20:42 | -37.53803 | -59.88848 | 35855 ft | 382 kts | 221° |
| 2026-05-04 20:42 | -37.58201 | -59.92605 | 35851 ft | 382 kts | 221° |
| 2026-05-04 20:43 | -37.61858 | -59.95732 | 35852 ft | 382 kts | 221° |
| 2026-05-04 20:43 | -37.66254 | -59.99498 | 35854 ft | 382 kts | 221° |
| 2026-05-04 20:44 | -37.70652 | -60.03270 | 35852 ft | 382 kts | 221° |
| 2026-05-04 20:44 | -37.75046 | -60.07044 | 35849 ft | 382 kts | 222° |
| 2026-05-04 20:45 | -37.79437 | -60.10822 | 35853 ft | 382 kts | 222° |
| 2026-05-04 20:45 | -37.83825 | -60.14601 | 35851 ft | 382 kts | 222° |
| 2026-05-04 20:46 | -37.88210 | -60.18385 | 35847 ft | 381 kts | 222° |
| 2026-05-04 20:46 | -37.92592 | -60.22172 | 35845 ft | 381 kts | 222° |
| 2026-05-04 20:47 | -37.97004 | -60.25993 | 35296 ft | 387 kts | 222° |
| 2026-05-04 20:47 | -37.99220 | -60.27912 | 34658 ft | 386 kts | 222° |
| 2026-05-04 20:47 | -38.01436 | -60.29831 | 34064 ft | 386 kts | 222° |
| 2026-05-04 20:48 | -38.03652 | -60.31754 | 33357 ft | 387 kts | 222° |
| 2026-05-04 20:48 | -38.05845 | -60.33658 | 32659 ft | 387 kts | 222° |
| 2026-05-04 20:48 | -38.08071 | -60.35592 | 31961 ft | 388 kts | 222° |
| 2026-05-04 20:48 | -38.10303 | -60.37533 | 31265 ft | 389 kts | 222° |
| 2026-05-04 20:49 | -38.12502 | -60.39597 | 30539 ft | 385 kts | 229° |
| 2026-05-04 20:49 | -38.14346 | -60.42029 | 29844 ft | 381 kts | 235° |
| 2026-05-04 20:49 | -38.15980 | -60.44678 | 28871 ft | 382 kts | 239° |
| 2026-05-04 20:49 | -38.17374 | -60.47564 | 27968 ft | 382 kts | 247° |
| 2026-05-04 20:50 | -38.18429 | -60.50580 | 27411 ft | 377 kts | 249° |
| 2026-05-04 20:50 | -38.19442 | -60.53632 | 26857 ft | 372 kts | 249° |
| 2026-05-04 20:50 | -38.20433 | -60.56654 | 26328 ft | 368 kts | 249° |
| 2026-05-04 20:50 | -38.21415 | -60.59646 | 25814 ft | 365 kts | 249° |
| 2026-05-04 20:51 | -38.22389 | -60.62603 | 25310 ft | 361 kts | 249° |
| 2026-05-04 20:51 | -38.23358 | -60.65535 | 24813 ft | 358 kts | 249° |
| 2026-05-04 20:51 | -38.24320 | -60.68442 | 24318 ft | 355 kts | 249° |
| 2026-05-04 20:51 | -38.25276 | -60.71326 | 23831 ft | 353 kts | 249° |
| 2026-05-04 20:52 | -38.26225 | -60.74192 | 23318 ft | 351 kts | 249° |
| 2026-05-04 20:52 | -38.27170 | -60.77047 | 22749 ft | 349 kts | 250° |
| 2026-05-04 20:52 | -38.28107 | -60.79880 | 22247 ft | 346 kts | 250° |
| 2026-05-04 20:52 | -38.29035 | -60.82684 | 21760 ft | 342 kts | 250° |
| 2026-05-04 20:53 | -38.29951 | -60.85460 | 21290 ft | 339 kts | 250° |
| 2026-05-04 20:53 | -38.30861 | -60.88218 | 20807 ft | 337 kts | 250° |
| 2026-05-04 20:53 | -38.31765 | -60.90962 | 20341 ft | 335 kts | 250° |
| 2026-05-04 20:53 | -38.32668 | -60.93708 | 19872 ft | 339 kts | 250° |
| 2026-05-04 20:54 | -38.33590 | -60.96517 | 19408 ft | 347 kts | 250° |
| 2026-05-04 20:54 | -38.34524 | -60.99357 | 18914 ft | 347 kts | 250° |
| 2026-05-04 20:54 | -38.35452 | -61.02182 | 18436 ft | 344 kts | 250° |
| 2026-05-04 20:54 | -38.36372 | -61.04982 | 17930 ft | 341 kts | 250° |
| 2026-05-04 20:55 | -38.37210 | -61.07785 | 17396 ft | 336 kts | 255° |
| 2026-05-04 20:55 | -38.37755 | -61.10668 | 16787 ft | 334 kts | 259° |
| 2026-05-04 20:55 | -38.38230 | -61.13560 | 16216 ft | 333 kts | 259° |
| 2026-05-04 20:55 | -38.38697 | -61.16434 | 15692 ft | 330 kts | 259° |
| 2026-05-04 20:56 | -38.39161 | -61.19285 | 15193 ft | 327 kts | 259° |
| 2026-05-04 20:56 | -38.39624 | -61.22118 | 14694 ft | 325 kts | 259° |
| 2026-05-04 20:56 | -38.40085 | -61.24929 | 14219 ft | 323 kts | 259° |
| 2026-05-04 20:56 | -38.40543 | -61.27717 | 13750 ft | 320 kts | 259° |
| 2026-05-04 20:57 | -38.40999 | -61.30489 | 13208 ft | 319 kts | 260° |
| 2026-05-04 20:57 | -38.41538 | -61.33209 | 12867 ft | 315 kts | 252° |
| 2026-05-04 20:57 | -38.42453 | -61.35739 | 12444 ft | 314 kts | 245° |
| 2026-05-04 20:57 | -38.43645 | -61.38087 | 11976 ft | 316 kts | 238° |
| 2026-05-04 20:58 | -38.44972 | -61.40275 | 11524 ft | 316 kts | 237° |
| 2026-05-04 20:58 | -38.46335 | -61.42468 | 11057 ft | 315 kts | 237° |
| 2026-05-04 20:58 | -38.47686 | -61.44634 | 10852 ft | 308 kts | 237° |
| 2026-05-04 20:58 | -38.49009 | -61.46759 | 10690 ft | 303 kts | 237° |
| 2026-05-04 20:59 | -38.50304 | -61.48848 | 10546 ft | 298 kts | 238° |
| 2026-05-04 20:59 | -38.51585 | -61.50925 | 10419 ft | 296 kts | 238° |
| 2026-05-04 20:59 | -38.52844 | -61.52968 | 10284 ft | 288 kts | 238° |
| 2026-05-04 20:59 | -38.54063 | -61.54948 | 10157 ft | 279 kts | 238° |
| 2026-05-04 21:00 | -38.55244 | -61.56869 | 10033 ft | 270 kts | 238° |
| 2026-05-04 21:00 | -38.56386 | -61.58730 | 9906 ft | 262 kts | 239° |
| 2026-05-04 21:00 | -38.57497 | -61.60543 | 9708 ft | 258 kts | 239° |
| 2026-05-04 21:00 | -38.58597 | -61.62347 | 9409 ft | 256 kts | 238° |
| 2026-05-04 21:01 | -38.59690 | -61.64140 | 9101 ft | 255 kts | 238° |
| 2026-05-04 21:01 | -38.60780 | -61.65929 | 8798 ft | 254 kts | 237° |
| 2026-05-04 21:01 | -38.61864 | -61.67707 | 8499 ft | 253 kts | 237° |
| 2026-05-04 21:01 | -38.62947 | -61.69483 | 8194 ft | 252 kts | 236° |
| 2026-05-04 21:02 | -38.64023 | -61.71249 | 7896 ft | 251 kts | 236° |
| 2026-05-04 21:02 | -38.65096 | -61.73011 | 7598 ft | 251 kts | 236° |
| 2026-05-04 21:02 | -38.66165 | -61.74766 | 7297 ft | 249 kts | 234° |
| 2026-05-04 21:02 | -38.67227 | -61.76511 | 6992 ft | 248 kts | 234° |
| 2026-05-04 21:03 | -38.68286 | -61.78251 | 6700 ft | 247 kts | 234° |
| 2026-05-04 21:03 | -38.69272 | -61.79868 | 6737 ft | 223 kts | 234° |
| 2026-05-04 21:03 | -38.70198 | -61.81387 | 6644 ft | 209 kts | 234° |
| 2026-05-04 21:03 | -38.71063 | -61.82809 | 6543 ft | 196 kts | 234° |
| 2026-05-04 21:04 | -38.71874 | -61.84145 | 6438 ft | 184 kts | 234° |
| 2026-05-04 21:04 | -38.72646 | -61.85418 | 6224 ft | 177 kts | 234° |
| 2026-05-04 21:04 | -38.73392 | -61.86646 | 5932 ft | 174 kts | 234° |
| 2026-05-04 21:04 | -38.74137 | -61.87875 | 5579 ft | 174 kts | 234° |
| 2026-05-04 21:05 | -38.74849 | -61.89050 | 5434 ft | 163 kts | 234° |
| 2026-05-04 21:05 | -38.75546 | -61.90200 | 5071 ft | 165 kts | 234° |
| 2026-05-04 21:05 | -38.76254 | -61.91371 | 4701 ft | 167 kts | 234° |
| 2026-05-04 21:05 | -38.76966 | -61.92546 | 4369 ft | 166 kts | 234° |
| 2026-05-04 21:06 | -38.77655 | -61.93684 | 4256 ft | 161 kts | 234° |
| 2026-05-04 21:06 | -38.78347 | -61.94828 | 4185 ft | 165 kts | 234° |
| 2026-05-04 21:06 | -38.79061 | -61.96008 | 4044 ft | 170 kts | 234° |
| 2026-05-04 21:06 | -38.79784 | -61.97203 | 3850 ft | 168 kts | 234° |
| 2026-05-04 21:07 | -38.80498 | -61.98383 | 3632 ft | 167 kts | 234° |
| 2026-05-04 21:07 | -38.81204 | -61.99551 | 3439 ft | 165 kts | 235° |
| 2026-05-04 21:07 | -38.81909 | -62.00717 | 3244 ft | 166 kts | 235° |
| 2026-05-04 21:07 | -38.82619 | -62.01894 | 3192 ft | 166 kts | 235° |
| 2026-05-04 21:08 | -38.83337 | -62.03083 | 2985 ft | 169 kts | 235° |
| 2026-05-04 21:08 | -38.83757 | -62.04423 | 2792 ft | 158 kts | 267° |
| 2026-05-04 21:08 | -38.83529 | -62.05740 | 2591 ft | 149 kts | 295° |
| 2026-05-04 21:08 | -38.82846 | -62.06754 | 2457 ft | 152 kts | 308° |
| 2026-05-04 21:09 | -38.82123 | -62.07748 | 2248 ft | 151 kts | 308° |
| 2026-05-04 21:09 | -38.81419 | -62.08711 | 2058 ft | 146 kts | 309° |
| 2026-05-04 21:09 | -38.80725 | -62.09654 | 1890 ft | 143 kts | 309° |
| 2026-05-04 21:09 | -38.80053 | -62.10542 | 1867 ft | 134 kts | 311° |
| 2026-05-04 21:10 | -38.79360 | -62.11393 | 1809 ft | 139 kts | 313° |
| 2026-05-04 21:10 | -38.78650 | -62.12225 | 1717 ft | 137 kts | 314° |
| 2026-05-04 21:10 | -38.77906 | -62.12972 | 1515 ft | 133 kts | 320° |
| 2026-05-04 21:10 | -38.77140 | -62.13606 | 1191 ft | 134 kts | 328° |
| 2026-05-04 21:11 | -38.76275 | -62.14063 | 935 ft | 137 kts | 340° |
| 2026-05-04 21:11 | -38.75352 | -62.14374 | 698 ft | 137 kts | 343° |
| 2026-05-04 21:11 | -38.74445 | -62.14702 | 485 ft | 133 kts | 341° |
| 2026-05-04 21:11 | -38.73569 | -62.15029 | 250 ft | 129 kts | 342° |
| 2026-05-04 21:12 | -38.72788 | -62.15321 | 238 ft | 102 kts | 344° |
| 2026-05-04 21:12 | -38.72396 | -62.15476 | 240 ft | 23 kts | 320° |
| 2026-05-04 21:12 | -38.72385 | -62.15658 | 242 ft | 22 kts | 246° |
| 2026-05-04 21:12 | -38.72499 | -62.15793 | 243 ft | 26 kts | 184° |
| 2026-05-04 21:13 | -38.72701 | -62.15812 | 243 ft | 32 kts | 184° |
| 2026-05-04 21:13 | -38.72932 | -62.15836 | 243 ft | 25 kts | 174° |
| 2026-05-04 21:13 | -38.72991 | -62.15662 | 243 ft | 23 kts | 88° |
| 2026-05-04 21:13 | -38.73025 | -62.15481 | 243 ft | 19 kts | 150° |
| 2026-05-04 21:14 | -38.73145 | -62.15431 | 243 ft | 18 kts | 163° |
| 2026-05-04 21:14 | -38.73181 | -62.15457 | 243 ft | 8 kts | 260° |
| 2026-05-04 21:14 | -38.73182 | -62.15485 | 243 ft | 0 kts | 266° |